sensor_id;sensor_type;location;lat;lon;timestamp;P1;durP1;ratioP1;P2;durP2;ratioP2
19547;SDS011;9919;58.014;11.826;2022-12-10T00:00:40;0.40;;;0.40;;
19547;SDS011;9919;58.014;11.826;2022-12-10T00:02:41;0.20;;;0.20;;
19547;SDS011;9919;58.014;11.826;2022-12-10T00:04:42;0.45;;;0.45;;
19547;SDS011;9919;58.014;11.826;2022-12-10T00:06:45;0.45;;;0.45;;
19547;SDS011;9919;58.014;11.826;2022-12-10T00:08:47;0.35;;;0.35;;
19547;SDS011;9919;58.014;11.826;2022-12-10T00:10:50;0.70;;;0.70;;
19547;SDS011;9919;58.014;11.826;2022-12-10T00:12:52;0.45;;;0.45;;
19547;SDS011;9919;58.014;11.826;2022-12-10T00:14:55;1.00;;;0.90;;
19547;SDS011;9919;58.014;11.826;2022-12-10T00:16:56;0.95;;;0.50;;
19547;SDS011;9919;58.014;11.826;2022-12-10T00:18:57;0.50;;;0.50;;
19547;SDS011;9919;58.014;11.826;2022-12-10T00:21:02;0.70;;;0.70;;
19547;SDS011;9919;58.014;11.826;2022-12-10T00:23:07;0.50;;;0.50;;
19547;SDS011;9919;58.014;11.826;2022-12-10T00:25:08;0.35;;;0.35;;
19547;SDS011;9919;58.014;11.826;2022-12-10T00:27:10;0.85;;;0.57;;
19547;SDS011;9919;58.014;11.826;2022-12-10T00:29:11;0.70;;;0.70;;
19547;SDS011;9919;58.014;11.826;2022-12-10T00:31:17;0.40;;;0.40;;
19547;SDS011;9919;58.014;11.826;2022-12-10T00:33:20;0.40;;;0.40;;
19547;SDS011;9919;58.014;11.826;2022-12-10T00:35:22;0.63;;;0.60;;
19547;SDS011;9919;58.014;11.826;2022-12-10T00:37:25;0.43;;;0.38;;
19547;SDS011;9919;58.014;11.826;2022-12-10T00:39:26;2.13;;;0.30;;
19547;SDS011;9919;58.014;11.826;2022-12-10T00:41:29;0.40;;;0.40;;
19547;SDS011;9919;58.014;11.826;2022-12-10T00:43:31;0.40;;;0.40;;
19547;SDS011;9919;58.014;11.826;2022-12-10T00:45:32;0.65;;;0.57;;
19547;SDS011;9919;58.014;11.826;2022-12-10T00:47:33;0.50;;;0.50;;
19547;SDS011;9919;58.014;11.826;2022-12-10T00:49:36;0.38;;;0.38;;
19547;SDS011;9919;58.014;11.826;2022-12-10T00:51:37;0.32;;;0.32;;
19547;SDS011;9919;58.014;11.826;2022-12-10T00:53:41;0.30;;;0.30;;
19547;SDS011;9919;58.014;11.826;2022-12-10T00:55:43;0.43;;;0.40;;
19547;SDS011;9919;58.014;11.826;2022-12-10T00:57:45;0.45;;;0.45;;
19547;SDS011;9919;58.014;11.826;2022-12-10T00:59:46;0.55;;;0.55;;
19547;SDS011;9919;58.014;11.826;2022-12-10T01:01:48;0.70;;;0.70;;
19547;SDS011;9919;58.014;11.826;2022-12-10T01:03:50;0.30;;;0.30;;
19547;SDS011;9919;58.014;11.826;2022-12-10T01:05:53;0.40;;;0.40;;
19547;SDS011;9919;58.014;11.826;2022-12-10T01:07:55;0.52;;;0.40;;
19547;SDS011;9919;58.014;11.826;2022-12-10T01:09:56;0.47;;;0.40;;
19547;SDS011;9919;58.014;11.826;2022-12-10T01:12:00;1.08;;;0.47;;
19547;SDS011;9919;58.014;11.826;2022-12-10T01:14:03;0.43;;;0.43;;
19547;SDS011;9919;58.014;11.826;2022-12-10T01:16:07;0.43;;;0.43;;
19547;SDS011;9919;58.014;11.826;2022-12-10T01:18:10;0.40;;;0.40;;
19547;SDS011;9919;58.014;11.826;2022-12-10T01:20:11;0.40;;;0.40;;
19547;SDS011;9919;58.014;11.826;2022-12-10T01:22:12;0.40;;;0.40;;
19547;SDS011;9919;58.014;11.826;2022-12-10T01:24:14;1.58;;;0.50;;
19547;SDS011;9919;58.014;11.826;2022-12-10T01:26:19;0.60;;;0.60;;
19547;SDS011;9919;58.014;11.826;2022-12-10T01:28:27;0.40;;;0.40;;
19547;SDS011;9919;58.014;11.826;2022-12-10T01:30:30;0.35;;;0.35;;
19547;SDS011;9919;58.014;11.826;2022-12-10T01:32:32;0.85;;;0.47;;
19547;SDS011;9919;58.014;11.826;2022-12-10T01:34:33;0.40;;;0.40;;
19547;SDS011;9919;58.014;11.826;2022-12-10T01:36:36;0.45;;;0.45;;
19547;SDS011;9919;58.014;11.826;2022-12-10T01:38:39;0.40;;;0.40;;
19547;SDS011;9919;58.014;11.826;2022-12-10T01:40:41;1.38;;;0.32;;
19547;SDS011;9919;58.014;11.826;2022-12-10T01:42:43;0.30;;;0.30;;
19547;SDS011;9919;58.014;11.826;2022-12-10T01:46:49;0.50;;;0.50;;
19547;SDS011;9919;58.014;11.826;2022-12-10T01:48:52;0.60;;;0.55;;
19547;SDS011;9919;58.014;11.826;2022-12-10T01:50:53;0.45;;;0.45;;
19547;SDS011;9919;58.014;11.826;2022-12-10T01:52:55;0.50;;;0.50;;
19547;SDS011;9919;58.014;11.826;2022-12-10T01:54:56;0.40;;;0.40;;
19547;SDS011;9919;58.014;11.826;2022-12-10T01:57:05;0.20;;;0.20;;
19547;SDS011;9919;58.014;11.826;2022-12-10T01:59:08;0.45;;;0.45;;
19547;SDS011;9919;58.014;11.826;2022-12-10T02:01:11;0.40;;;0.40;;
19547;SDS011;9919;58.014;11.826;2022-12-10T02:05:44;0.68;;;0.68;;
19547;SDS011;9919;58.014;11.826;2022-12-10T02:12:37;0.55;;;0.30;;
19547;SDS011;9919;58.014;11.826;2022-12-10T02:17:24;0.32;;;0.32;;
19547;SDS011;9919;58.014;11.826;2022-12-10T02:19:54;0.35;;;0.35;;
19547;SDS011;9919;58.014;11.826;2022-12-10T02:22:06;0.47;;;0.43;;
19547;SDS011;9919;58.014;11.826;2022-12-10T02:24:10;0.40;;;0.40;;
19547;SDS011;9919;58.014;11.826;2022-12-10T02:31:10;0.50;;;0.50;;
19547;SDS011;9919;58.014;11.826;2022-12-10T02:33:13;0.63;;;0.63;;
19547;SDS011;9919;58.014;11.826;2022-12-10T02:35:19;0.70;;;0.65;;
19547;SDS011;9919;58.014;11.826;2022-12-10T02:37:26;0.32;;;0.32;;
19547;SDS011;9919;58.014;11.826;2022-12-10T02:39:31;0.50;;;0.50;;
19547;SDS011;9919;58.014;11.826;2022-12-10T02:41:37;0.80;;;0.80;;
19547;SDS011;9919;58.014;11.826;2022-12-10T02:43:43;0.30;;;0.30;;
19547;SDS011;9919;58.014;11.826;2022-12-10T02:45:49;0.35;;;0.35;;
19547;SDS011;9919;58.014;11.826;2022-12-10T02:47:53;1.65;;;0.38;;
19547;SDS011;9919;58.014;11.826;2022-12-10T02:49:57;0.30;;;0.30;;
19547;SDS011;9919;58.014;11.826;2022-12-10T02:52:05;0.90;;;0.68;;
19547;SDS011;9919;58.014;11.826;2022-12-10T02:56:52;0.50;;;0.50;;
19547;SDS011;9919;58.014;11.826;2022-12-10T03:03:40;0.25;;;0.25;;
19547;SDS011;9919;58.014;11.826;2022-12-10T03:05:47;0.45;;;0.45;;
19547;SDS011;9919;58.014;11.826;2022-12-10T03:08:13;0.90;;;0.30;;
19547;SDS011;9919;58.014;11.826;2022-12-10T03:12:27;0.30;;;0.30;;
19547;SDS011;9919;58.014;11.826;2022-12-10T03:14:33;2.03;;;0.47;;
19547;SDS011;9919;58.014;11.826;2022-12-10T03:16:37;0.47;;;0.40;;
19547;SDS011;9919;58.014;11.826;2022-12-10T03:18:43;0.50;;;0.50;;
19547;SDS011;9919;58.014;11.826;2022-12-10T03:20:47;0.45;;;0.45;;
19547;SDS011;9919;58.014;11.826;2022-12-10T03:22:49;0.40;;;0.40;;
19547;SDS011;9919;58.014;11.826;2022-12-10T03:24:50;0.63;;;0.57;;
19547;SDS011;9919;58.014;11.826;2022-12-10T03:26:52;3.30;;;0.50;;
19547;SDS011;9919;58.014;11.826;2022-12-10T03:28:56;0.40;;;0.40;;
19547;SDS011;9919;58.014;11.826;2022-12-10T03:31:02;0.40;;;0.40;;
19547;SDS011;9919;58.014;11.826;2022-12-10T03:33:04;0.30;;;0.30;;
19547;SDS011;9919;58.014;11.826;2022-12-10T03:35:06;0.57;;;0.57;;
19547;SDS011;9919;58.014;11.826;2022-12-10T03:37:08;0.40;;;0.40;;
19547;SDS011;9919;58.014;11.826;2022-12-10T03:39:11;2.00;;;0.60;;
19547;SDS011;9919;58.014;11.826;2022-12-10T03:41:13;1.73;;;0.40;;
19547;SDS011;9919;58.014;11.826;2022-12-10T03:43:15;0.40;;;0.40;;
19547;SDS011;9919;58.014;11.826;2022-12-10T03:45:17;0.10;;;0.10;;
19547;SDS011;9919;58.014;11.826;2022-12-10T03:47:19;0.65;;;0.65;;
19547;SDS011;9919;58.014;11.826;2022-12-10T03:49:21;0.60;;;0.60;;
19547;SDS011;9919;58.014;11.826;2022-12-10T03:51:23;0.47;;;0.47;;
19547;SDS011;9919;58.014;11.826;2022-12-10T03:53:24;0.40;;;0.40;;
19547;SDS011;9919;58.014;11.826;2022-12-10T03:55:26;0.65;;;0.38;;
19547;SDS011;9919;58.014;11.826;2022-12-10T03:57:27;0.43;;;0.22;;
19547;SDS011;9919;58.014;11.826;2022-12-10T03:59:28;0.32;;;0.32;;
19547;SDS011;9919;58.014;11.826;2022-12-10T04:01:30;0.40;;;0.40;;
19547;SDS011;9919;58.014;11.826;2022-12-10T04:03:34;0.38;;;0.38;;
19547;SDS011;9919;58.014;11.826;2022-12-10T04:05:37;0.88;;;0.60;;
19547;SDS011;9919;58.014;11.826;2022-12-10T04:07:38;0.52;;;0.52;;
19547;SDS011;9919;58.014;11.826;2022-12-10T04:09:40;0.20;;;0.20;;
19547;SDS011;9919;58.014;11.826;2022-12-10T04:11:43;1.42;;;0.50;;
19547;SDS011;9919;58.014;11.826;2022-12-10T04:13:45;0.30;;;0.30;;
19547;SDS011;9919;58.014;11.826;2022-12-10T04:16:07;1.00;;;0.50;;
19547;SDS011;9919;58.014;11.826;2022-12-10T04:18:26;0.50;;;0.43;;
19547;SDS011;9919;58.014;11.826;2022-12-10T04:20:29;0.65;;;0.65;;
19547;SDS011;9919;58.014;11.826;2022-12-10T04:22:49;0.40;;;0.40;;
19547;SDS011;9919;58.014;11.826;2022-12-10T04:25:10;0.35;;;0.35;;
19547;SDS011;9919;58.014;11.826;2022-12-10T04:27:35;0.20;;;0.20;;
19547;SDS011;9919;58.014;11.826;2022-12-10T04:29:37;0.45;;;0.30;;
19547;SDS011;9919;58.014;11.826;2022-12-10T04:31:38;0.40;;;0.40;;
19547;SDS011;9919;58.014;11.826;2022-12-10T04:33:40;0.57;;;0.55;;
19547;SDS011;9919;58.014;11.826;2022-12-10T04:35:41;0.32;;;0.32;;
19547;SDS011;9919;58.014;11.826;2022-12-10T04:37:43;0.50;;;0.30;;
19547;SDS011;9919;58.014;11.826;2022-12-10T04:39:45;1.17;;;0.65;;
19547;SDS011;9919;58.014;11.826;2022-12-10T04:41:48;0.43;;;0.43;;
19547;SDS011;9919;58.014;11.826;2022-12-10T04:43:49;0.30;;;0.30;;
19547;SDS011;9919;58.014;11.826;2022-12-10T04:45:55;1.05;;;0.50;;
19547;SDS011;9919;58.014;11.826;2022-12-10T04:47:56;0.38;;;0.38;;
19547;SDS011;9919;58.014;11.826;2022-12-10T04:49:57;0.47;;;0.47;;
19547;SDS011;9919;58.014;11.826;2022-12-10T04:51:59;0.40;;;0.40;;
19547;SDS011;9919;58.014;11.826;2022-12-10T04:54:00;0.30;;;0.30;;
19547;SDS011;9919;58.014;11.826;2022-12-10T04:56:02;0.35;;;0.35;;
19547;SDS011;9919;58.014;11.826;2022-12-10T04:58:05;0.40;;;0.40;;
19547;SDS011;9919;58.014;11.826;2022-12-10T05:00:06;0.35;;;0.35;;
19547;SDS011;9919;58.014;11.826;2022-12-10T05:02:08;0.40;;;0.40;;
19547;SDS011;9919;58.014;11.826;2022-12-10T05:04:11;0.30;;;0.30;;
19547;SDS011;9919;58.014;11.826;2022-12-10T05:06:14;0.30;;;0.30;;
19547;SDS011;9919;58.014;11.826;2022-12-10T05:08:17;0.85;;;0.40;;
19547;SDS011;9919;58.014;11.826;2022-12-10T05:10:18;0.20;;;0.20;;
19547;SDS011;9919;58.014;11.826;2022-12-10T05:12:19;0.40;;;0.40;;
19547;SDS011;9919;58.014;11.826;2022-12-10T05:14:20;0.35;;;0.35;;
19547;SDS011;9919;58.014;11.826;2022-12-10T05:16:22;0.40;;;0.40;;
19547;SDS011;9919;58.014;11.826;2022-12-10T05:18:26;0.40;;;0.40;;
19547;SDS011;9919;58.014;11.826;2022-12-10T05:20:27;0.35;;;0.35;;
19547;SDS011;9919;58.014;11.826;2022-12-10T05:22:30;0.22;;;0.22;;
19547;SDS011;9919;58.014;11.826;2022-12-10T05:24:50;0.25;;;0.25;;
19547;SDS011;9919;58.014;11.826;2022-12-10T05:26:51;0.40;;;0.40;;
19547;SDS011;9919;58.014;11.826;2022-12-10T05:28:54;0.30;;;0.30;;
19547;SDS011;9919;58.014;11.826;2022-12-10T05:30:56;0.43;;;0.43;;
19547;SDS011;9919;58.014;11.826;2022-12-10T05:32:57;0.30;;;0.28;;
19547;SDS011;9919;58.014;11.826;2022-12-10T05:34:59;0.40;;;0.40;;
19547;SDS011;9919;58.014;11.826;2022-12-10T05:37:00;0.40;;;0.40;;
19547;SDS011;9919;58.014;11.826;2022-12-10T05:39:02;0.63;;;0.40;;
19547;SDS011;9919;58.014;11.826;2022-12-10T05:41:04;0.38;;;0.38;;
19547;SDS011;9919;58.014;11.826;2022-12-10T05:43:08;0.80;;;0.40;;
19547;SDS011;9919;58.014;11.826;2022-12-10T05:45:09;0.40;;;0.40;;
19547;SDS011;9919;58.014;11.826;2022-12-10T05:47:12;1.13;;;0.40;;
19547;SDS011;9919;58.014;11.826;2022-12-10T05:49:13;0.30;;;0.30;;
19547;SDS011;9919;58.014;11.826;2022-12-10T05:51:16;0.22;;;0.22;;
19547;SDS011;9919;58.014;11.826;2022-12-10T05:53:19;0.32;;;0.32;;
19547;SDS011;9919;58.014;11.826;2022-12-10T05:55:20;0.38;;;0.38;;
19547;SDS011;9919;58.014;11.826;2022-12-10T05:57:22;0.20;;;0.20;;
19547;SDS011;9919;58.014;11.826;2022-12-10T05:59:23;0.55;;;0.40;;
19547;SDS011;9919;58.014;11.826;2022-12-10T06:01:25;0.55;;;0.40;;
19547;SDS011;9919;58.014;11.826;2022-12-10T06:03:28;0.35;;;0.35;;
19547;SDS011;9919;58.014;11.826;2022-12-10T06:05:29;0.47;;;0.47;;
19547;SDS011;9919;58.014;11.826;2022-12-10T06:07:38;0.38;;;0.38;;
19547;SDS011;9919;58.014;11.826;2022-12-10T06:09:39;0.30;;;0.30;;
19547;SDS011;9919;58.014;11.826;2022-12-10T06:11:40;0.38;;;0.38;;
19547;SDS011;9919;58.014;11.826;2022-12-10T06:13:42;0.65;;;0.25;;
19547;SDS011;9919;58.014;11.826;2022-12-10T06:15:43;0.43;;;0.43;;
19547;SDS011;9919;58.014;11.826;2022-12-10T06:17:45;0.38;;;0.38;;
19547;SDS011;9919;58.014;11.826;2022-12-10T06:19:46;0.50;;;0.50;;
19547;SDS011;9919;58.014;11.826;2022-12-10T06:21:48;1.17;;;0.43;;
19547;SDS011;9919;58.014;11.826;2022-12-10T06:23:49;3.33;;;0.30;;
19547;SDS011;9919;58.014;11.826;2022-12-10T06:25:52;0.40;;;0.40;;
19547;SDS011;9919;58.014;11.826;2022-12-10T06:27:53;0.75;;;0.63;;
19547;SDS011;9919;58.014;11.826;2022-12-10T06:29:55;0.43;;;0.30;;
19547;SDS011;9919;58.014;11.826;2022-12-10T06:31:56;0.50;;;0.40;;
19547;SDS011;9919;58.014;11.826;2022-12-10T06:33:59;0.28;;;0.28;;
19547;SDS011;9919;58.014;11.826;2022-12-10T06:36:02;2.30;;;0.43;;
19547;SDS011;9919;58.014;11.826;2022-12-10T06:38:05;0.40;;;0.40;;
19547;SDS011;9919;58.014;11.826;2022-12-10T06:40:06;0.50;;;0.50;;
19547;SDS011;9919;58.014;11.826;2022-12-10T06:42:08;0.50;;;0.50;;
19547;SDS011;9919;58.014;11.826;2022-12-10T06:44:09;0.40;;;0.40;;
19547;SDS011;9919;58.014;11.826;2022-12-10T06:46:12;0.40;;;0.40;;
19547;SDS011;9919;58.014;11.826;2022-12-10T06:48:15;0.40;;;0.40;;
19547;SDS011;9919;58.014;11.826;2022-12-10T06:50:16;0.43;;;0.43;;
19547;SDS011;9919;58.014;11.826;2022-12-10T06:52:19;0.40;;;0.40;;
19547;SDS011;9919;58.014;11.826;2022-12-10T06:54:22;0.30;;;0.30;;
19547;SDS011;9919;58.014;11.826;2022-12-10T06:56:23;0.30;;;0.30;;
19547;SDS011;9919;58.014;11.826;2022-12-10T06:58:26;0.98;;;0.50;;
19547;SDS011;9919;58.014;11.826;2022-12-10T07:00:28;1.52;;;0.57;;
19547;SDS011;9919;58.014;11.826;2022-12-10T07:02:29;0.32;;;0.32;;
19547;SDS011;9919;58.014;11.826;2022-12-10T07:04:31;0.30;;;0.30;;
19547;SDS011;9919;58.014;11.826;2022-12-10T07:06:32;0.40;;;0.40;;
19547;SDS011;9919;58.014;11.826;2022-12-10T07:08:35;0.30;;;0.30;;
19547;SDS011;9919;58.014;11.826;2022-12-10T07:10:37;0.68;;;0.40;;
19547;SDS011;9919;58.014;11.826;2022-12-10T07:12:39;0.45;;;0.45;;
19547;SDS011;9919;58.014;11.826;2022-12-10T07:14:40;0.60;;;0.60;;
19547;SDS011;9919;58.014;11.826;2022-12-10T07:16:42;2.45;;;0.40;;
19547;SDS011;9919;58.014;11.826;2022-12-10T07:18:43;0.28;;;0.28;;
19547;SDS011;9919;58.014;11.826;2022-12-10T07:20:45;0.47;;;0.47;;
19547;SDS011;9919;58.014;11.826;2022-12-10T07:22:46;1.08;;;0.40;;
19547;SDS011;9919;58.014;11.826;2022-12-10T07:24:48;0.45;;;0.45;;
19547;SDS011;9919;58.014;11.826;2022-12-10T07:26:50;0.47;;;0.47;;
19547;SDS011;9919;58.014;11.826;2022-12-10T07:28:52;3.03;;;0.60;;
19547;SDS011;9919;58.014;11.826;2022-12-10T07:30:59;0.60;;;0.60;;
19547;SDS011;9919;58.014;11.826;2022-12-10T07:33:01;0.50;;;0.50;;
19547;SDS011;9919;58.014;11.826;2022-12-10T07:35:03;0.60;;;0.60;;
19547;SDS011;9919;58.014;11.826;2022-12-10T07:37:05;0.50;;;0.50;;
19547;SDS011;9919;58.014;11.826;2022-12-10T07:39:08;0.28;;;0.28;;
19547;SDS011;9919;58.014;11.826;2022-12-10T07:41:17;0.40;;;0.40;;
19547;SDS011;9919;58.014;11.826;2022-12-10T07:43:18;0.50;;;0.50;;
19547;SDS011;9919;58.014;11.826;2022-12-10T07:45:20;0.47;;;0.40;;
19547;SDS011;9919;58.014;11.826;2022-12-10T07:47:22;0.50;;;0.50;;
19547;SDS011;9919;58.014;11.826;2022-12-10T07:49:23;0.20;;;0.20;;
19547;SDS011;9919;58.014;11.826;2022-12-10T07:51:24;0.75;;;0.40;;
19547;SDS011;9919;58.014;11.826;2022-12-10T07:53:26;0.43;;;0.43;;
19547;SDS011;9919;58.014;11.826;2022-12-10T07:55:27;0.35;;;0.35;;
19547;SDS011;9919;58.014;11.826;2022-12-10T07:57:29;0.68;;;0.68;;
19547;SDS011;9919;58.014;11.826;2022-12-10T07:59:31;0.32;;;0.32;;
19547;SDS011;9919;58.014;11.826;2022-12-10T08:01:32;0.30;;;0.30;;
19547;SDS011;9919;58.014;11.826;2022-12-10T08:03:34;0.35;;;0.35;;
19547;SDS011;9919;58.014;11.826;2022-12-10T08:05:36;0.40;;;0.40;;
19547;SDS011;9919;58.014;11.826;2022-12-10T08:07:39;0.47;;;0.47;;
19547;SDS011;9919;58.014;11.826;2022-12-10T08:09:41;0.38;;;0.38;;
19547;SDS011;9919;58.014;11.826;2022-12-10T08:11:43;0.43;;;0.43;;
19547;SDS011;9919;58.014;11.826;2022-12-10T08:13:46;0.60;;;0.60;;
19547;SDS011;9919;58.014;11.826;2022-12-10T08:15:47;0.57;;;0.57;;
19547;SDS011;9919;58.014;11.826;2022-12-10T08:17:49;1.20;;;0.73;;
19547;SDS011;9919;58.014;11.826;2022-12-10T08:19:50;0.60;;;0.60;;
19547;SDS011;9919;58.014;11.826;2022-12-10T08:21:51;0.40;;;0.40;;
19547;SDS011;9919;58.014;11.826;2022-12-10T08:23:53;1.58;;;0.63;;
19547;SDS011;9919;58.014;11.826;2022-12-10T08:25:55;0.50;;;0.50;;
19547;SDS011;9919;58.014;11.826;2022-12-10T08:27:56;0.40;;;0.40;;
19547;SDS011;9919;58.014;11.826;2022-12-10T08:29:59;0.45;;;0.45;;
19547;SDS011;9919;58.014;11.826;2022-12-10T08:32:01;0.47;;;0.47;;
19547;SDS011;9919;58.014;11.826;2022-12-10T08:34:04;0.80;;;0.80;;
19547;SDS011;9919;58.014;11.826;2022-12-10T08:36:11;0.60;;;0.60;;
19547;SDS011;9919;58.014;11.826;2022-12-10T08:38:13;0.43;;;0.40;;
19547;SDS011;9919;58.014;11.826;2022-12-10T08:40:15;0.60;;;0.60;;
19547;SDS011;9919;58.014;11.826;2022-12-10T08:42:16;0.68;;;0.68;;
19547;SDS011;9919;58.014;11.826;2022-12-10T08:44:18;0.70;;;0.70;;
19547;SDS011;9919;58.014;11.826;2022-12-10T08:46:19;1.77;;;0.80;;
19547;SDS011;9919;58.014;11.826;2022-12-10T08:48:21;0.60;;;0.60;;
19547;SDS011;9919;58.014;11.826;2022-12-10T08:50:23;1.13;;;0.93;;
19547;SDS011;9919;58.014;11.826;2022-12-10T08:52:25;0.80;;;0.80;;
19547;SDS011;9919;58.014;11.826;2022-12-10T08:54:29;0.93;;;0.93;;
19547;SDS011;9919;58.014;11.826;2022-12-10T08:56:30;0.70;;;0.70;;
19547;SDS011;9919;58.014;11.826;2022-12-10T08:58:32;0.88;;;0.88;;
19547;SDS011;9919;58.014;11.826;2022-12-10T09:00:33;1.00;;;0.98;;
19547;SDS011;9919;58.014;11.826;2022-12-10T09:02:35;0.85;;;0.85;;
19547;SDS011;9919;58.014;11.826;2022-12-10T09:04:37;1.08;;;0.90;;
19547;SDS011;9919;58.014;11.826;2022-12-10T09:06:39;4.18;;;1.98;;
19547;SDS011;9919;58.014;11.826;2022-12-10T09:08:40;3.65;;;2.45;;
19547;SDS011;9919;58.014;11.826;2022-12-10T09:10:42;5.90;;;2.72;;
19547;SDS011;9919;58.014;11.826;2022-12-10T09:12:43;9.02;;;3.47;;
19547;SDS011;9919;58.014;11.826;2022-12-10T09:14:44;6.95;;;3.72;;
19547;SDS011;9919;58.014;11.826;2022-12-10T09:16:46;8.48;;;4.15;;
19547;SDS011;9919;58.014;11.826;2022-12-10T09:18:48;6.20;;;3.50;;
19547;SDS011;9919;58.014;11.826;2022-12-10T09:20:50;7.30;;;3.75;;
19547;SDS011;9919;58.014;11.826;2022-12-10T09:22:51;8.23;;;3.83;;
19547;SDS011;9919;58.014;11.826;2022-12-10T09:24:53;8.02;;;3.88;;
19547;SDS011;9919;58.014;11.826;2022-12-10T09:26:55;7.32;;;4.03;;
19547;SDS011;9919;58.014;11.826;2022-12-10T09:28:56;5.30;;;3.58;;
19547;SDS011;9919;58.014;11.826;2022-12-10T09:30:58;5.50;;;3.53;;
19547;SDS011;9919;58.014;11.826;2022-12-10T09:33:00;6.85;;;3.53;;
19547;SDS011;9919;58.014;11.826;2022-12-10T09:35:01;5.47;;;3.38;;
19547;SDS011;9919;58.014;11.826;2022-12-10T09:37:03;4.00;;;2.60;;
19547;SDS011;9919;58.014;11.826;2022-12-10T09:39:06;5.50;;;2.45;;
19547;SDS011;9919;58.014;11.826;2022-12-10T09:52:41;8.68;;;2.90;;
19547;SDS011;9919;58.014;11.826;2022-12-10T09:54:45;2.70;;;2.05;;
19547;SDS011;9919;58.014;11.826;2022-12-10T09:57:05;4.55;;;2.45;;
19547;SDS011;9919;58.014;11.826;2022-12-10T09:59:15;3.67;;;1.60;;
19547;SDS011;9919;58.014;11.826;2022-12-10T10:01:19;4.25;;;1.70;;
19547;SDS011;9919;58.014;11.826;2022-12-10T10:03:23;3.80;;;1.88;;
19547;SDS011;9919;58.014;11.826;2022-12-10T10:05:26;3.15;;;1.83;;
19547;SDS011;9919;58.014;11.826;2022-12-10T10:07:29;3.47;;;1.95;;
19547;SDS011;9919;58.014;11.826;2022-12-10T10:09:32;3.88;;;1.77;;
19547;SDS011;9919;58.014;11.826;2022-12-10T10:11:36;4.18;;;1.88;;
19547;SDS011;9919;58.014;11.826;2022-12-10T10:13:39;3.78;;;2.22;;
19547;SDS011;9919;58.014;11.826;2022-12-10T10:16:18;3.17;;;2.30;;
19547;SDS011;9919;58.014;11.826;2022-12-10T10:18:34;3.75;;;2.53;;
19547;SDS011;9919;58.014;11.826;2022-12-10T10:20:39;4.50;;;2.05;;
19547;SDS011;9919;58.014;11.826;2022-12-10T10:22:40;1.90;;;1.60;;
19547;SDS011;9919;58.014;11.826;2022-12-10T10:24:44;3.95;;;2.47;;
19547;SDS011;9919;58.014;11.826;2022-12-10T10:26:46;5.47;;;1.95;;
19547;SDS011;9919;58.014;11.826;2022-12-10T10:28:48;2.83;;;1.85;;
19547;SDS011;9919;58.014;11.826;2022-12-10T10:30:51;4.57;;;2.17;;
19547;SDS011;9919;58.014;11.826;2022-12-10T10:32:55;4.55;;;2.13;;
19547;SDS011;9919;58.014;11.826;2022-12-10T10:34:58;5.50;;;1.73;;
19547;SDS011;9919;58.014;11.826;2022-12-10T10:37:00;3.03;;;1.70;;
19547;SDS011;9919;58.014;11.826;2022-12-10T10:41:18;5.10;;;2.22;;
19547;SDS011;9919;58.014;11.826;2022-12-10T10:47:41;3.47;;;1.50;;
19547;SDS011;9919;58.014;11.826;2022-12-10T10:49:43;4.88;;;1.80;;
19547;SDS011;9919;58.014;11.826;2022-12-10T10:51:45;3.33;;;1.15;;
19547;SDS011;9919;58.014;11.826;2022-12-10T10:53:47;1.42;;;1.10;;
19547;SDS011;9919;58.014;11.826;2022-12-10T10:55:52;1.00;;;0.90;;
19547;SDS011;9919;58.014;11.826;2022-12-10T10:57:55;1.90;;;1.13;;
19547;SDS011;9919;58.014;11.826;2022-12-10T11:00:02;1.90;;;1.00;;
19547;SDS011;9919;58.014;11.826;2022-12-10T11:02:25;0.68;;;0.65;;
19547;SDS011;9919;58.014;11.826;2022-12-10T11:04:44;1.80;;;1.25;;
19547;SDS011;9919;58.014;11.826;2022-12-10T11:06:46;0.88;;;0.88;;
19547;SDS011;9919;58.014;11.826;2022-12-10T11:08:56;2.90;;;1.02;;
19547;SDS011;9919;58.014;11.826;2022-12-10T11:11:02;1.80;;;1.02;;
19547;SDS011;9919;58.014;11.826;2022-12-10T11:13:06;0.80;;;0.80;;
19547;SDS011;9919;58.014;11.826;2022-12-10T11:17:23;1.95;;;1.02;;
19547;SDS011;9919;58.014;11.826;2022-12-10T11:19:25;1.42;;;1.23;;
19547;SDS011;9919;58.014;11.826;2022-12-10T11:21:28;1.58;;;1.48;;
19547;SDS011;9919;58.014;11.826;2022-12-10T11:23:31;1.98;;;1.17;;
19547;SDS011;9919;58.014;11.826;2022-12-10T11:25:43;2.13;;;1.08;;
19547;SDS011;9919;58.014;11.826;2022-12-10T11:28:02;1.48;;;1.38;;
19547;SDS011;9919;58.014;11.826;2022-12-10T11:30:15;4.55;;;1.67;;
19547;SDS011;9919;58.014;11.826;2022-12-10T11:36:48;1.75;;;1.15;;
19547;SDS011;9919;58.014;11.826;2022-12-10T11:41:29;1.23;;;1.02;;
19547;SDS011;9919;58.014;11.826;2022-12-10T11:48:24;2.55;;;1.10;;
19547;SDS011;9919;58.014;11.826;2022-12-10T11:50:48;1.23;;;0.98;;
19547;SDS011;9919;58.014;11.826;2022-12-10T11:57:34;0.80;;;0.80;;
19547;SDS011;9919;58.014;11.826;2022-12-10T12:09:25;1.15;;;0.98;;
19547;SDS011;9919;58.014;11.826;2022-12-10T12:16:09;0.88;;;0.88;;
19547;SDS011;9919;58.014;11.826;2022-12-10T12:18:21;2.60;;;1.30;;
19547;SDS011;9919;58.014;11.826;2022-12-10T12:20:39;1.88;;;0.90;;
19547;SDS011;9919;58.014;11.826;2022-12-10T12:22:52;0.90;;;0.90;;
19547;SDS011;9919;58.014;11.826;2022-12-10T12:25:02;0.80;;;0.80;;
19547;SDS011;9919;58.014;11.826;2022-12-10T12:36:48;1.88;;;0.70;;
19547;SDS011;9919;58.014;11.826;2022-12-10T12:41:31;1.95;;;1.15;;
19547;SDS011;9919;58.014;11.826;2022-12-10T12:45:40;2.13;;;1.08;;
19547;SDS011;9919;58.014;11.826;2022-12-10T12:47:53;0.93;;;0.88;;
19547;SDS011;9919;58.014;11.826;2022-12-10T12:50:02;0.43;;;0.43;;
19547;SDS011;9919;58.014;11.826;2022-12-10T12:52:20;3.42;;;0.70;;
19547;SDS011;9919;58.014;11.826;2022-12-10T12:54:32;0.50;;;0.50;;
19547;SDS011;9919;58.014;11.826;2022-12-10T13:03:41;2.65;;;0.90;;
19547;SDS011;9919;58.014;11.826;2022-12-10T13:05:43;1.67;;;0.90;;
19547;SDS011;9919;58.014;11.826;2022-12-10T13:07:44;1.00;;;0.90;;
19547;SDS011;9919;58.014;11.826;2022-12-10T13:10:22;1.10;;;1.02;;
19547;SDS011;9919;58.014;11.826;2022-12-10T13:12:30;0.98;;;0.80;;
19547;SDS011;9919;58.014;11.826;2022-12-10T13:19:34;0.80;;;0.75;;
19547;SDS011;9919;58.014;11.826;2022-12-10T13:21:35;7.40;;;1.20;;
19547;SDS011;9919;58.014;11.826;2022-12-10T13:24:07;1.08;;;0.80;;
19547;SDS011;9919;58.014;11.826;2022-12-10T13:26:21;0.60;;;0.60;;
19547;SDS011;9919;58.014;11.826;2022-12-10T13:30:38;1.08;;;0.98;;
19547;SDS011;9919;58.014;11.826;2022-12-10T13:34:42;0.85;;;0.85;;
19547;SDS011;9919;58.014;11.826;2022-12-10T13:41:05;9.20;;;0.95;;
19547;SDS011;9919;58.014;11.826;2022-12-10T13:43:36;0.68;;;0.68;;
19547;SDS011;9919;58.014;11.826;2022-12-10T13:48:30;0.75;;;0.75;;
19547;SDS011;9919;58.014;11.826;2022-12-10T13:59:54;1.65;;;1.20;;
19547;SDS011;9919;58.014;11.826;2022-12-10T14:07:12;1.40;;;0.77;;
19547;SDS011;9919;58.014;11.826;2022-12-10T14:11:38;0.80;;;0.80;;
19547;SDS011;9919;58.014;11.826;2022-12-10T14:13:44;0.60;;;0.50;;
19547;SDS011;9919;58.014;11.826;2022-12-10T14:15:51;0.77;;;0.77;;
19547;SDS011;9919;58.014;11.826;2022-12-10T14:18:28;0.70;;;0.70;;
19547;SDS011;9919;58.014;11.826;2022-12-10T14:20:23;0.75;;;0.73;;
19547;SDS011;9919;58.014;11.826;2022-12-10T14:24:36;0.80;;;0.80;;
19547;SDS011;9919;58.014;11.826;2022-12-10T14:26:38;0.98;;;0.60;;
19547;SDS011;9919;58.014;11.826;2022-12-10T14:28:41;1.38;;;0.90;;
19547;SDS011;9919;58.014;11.826;2022-12-10T14:30:46;0.60;;;0.60;;
19547;SDS011;9919;58.014;11.826;2022-12-10T14:32:49;0.95;;;0.85;;
19547;SDS011;9919;58.014;11.826;2022-12-10T14:34:52;0.70;;;0.70;;
19547;SDS011;9919;58.014;11.826;2022-12-10T14:36:57;1.17;;;1.08;;
19547;SDS011;9919;58.014;11.826;2022-12-10T14:39:00;0.63;;;0.63;;
19547;SDS011;9919;58.014;11.826;2022-12-10T14:41:02;0.60;;;0.60;;
19547;SDS011;9919;58.014;11.826;2022-12-10T14:43:05;0.80;;;0.80;;